Time;durP1;ratioP1;P1;durP2;ratioP2;P2;SDS_P1;SDS_P2;PMS_P1;PMS_P2;Temp;Humidity;BMP_temperature;BMP_pressure;BME280_temperature;BME280_humidity;BME280_pressure;Samples;Min_cycle;Max_cycle;Signal;HPM_P1;HPM_P2
2022/07/08 00:01:57;;;;;;;1.25;0.98;;;20.80;52.40;;;;;;5076626;28;20020;-84
2022/07/08 00:04:22;;;;;;;1.23;0.70;;;20.80;52.40;;;;;;5097974;28;20028;-84
2022/07/08 00:06:48;;;;;;;0.85;0.75;;;20.80;52.50;;;;;;5115212;28;20034;-83
2022/07/08 00:09:15;;;;;;;0.93;0.80;;;20.80;52.50;;;;;;5103139;28;20028;-84
2022/07/08 00:11:41;;;;;;;1.05;0.73;;;20.80;52.50;;;;;;5076226;28;20107;-84
2022/07/08 00:14:08;;;;;;;1.40;0.88;;;20.80;52.50;;;;;;5087362;28;20069;-85
2022/07/08 00:16:38;;;;;;;0.95;0.80;;;20.80;52.60;;;;;;5080555;28;20047;-85
2022/07/08 00:19:04;;;;;;;2.13;1.00;;;20.80;52.60;;;;;;5097993;28;20039;-85
2022/07/08 00:21:30;;;;;;;1.33;0.88;;;20.80;52.60;;;;;;5080160;28;20032;-85
2022/07/08 00:23:55;;;;;;;0.73;0.73;;;20.70;52.60;;;;;;5107369;28;20051;-84
2022/07/08 00:26:21;;;;;;;1.00;0.73;;;20.70;52.60;;;;;;5096798;28;20063;-85
2022/07/08 00:28:47;;;;;;;1.58;0.88;;;20.70;52.60;;;;;;5092902;28;20153;-84
2022/07/08 00:31:12;;;;;;;2.05;1.00;;;20.70;52.70;;;;;;5096451;28;20038;-84
2022/07/08 00:33:38;;;;;;;1.50;1.00;;;20.60;52.60;;;;;;5097675;28;20040;-85
2022/07/08 00:36:04;;;;;;;1.00;0.90;;;20.70;52.70;;;;;;5097116;28;20024;-85
2022/07/08 00:38:30;;;;;;;1.27;0.90;;;20.60;52.70;;;;;;5094067;28;20078;-84
2022/07/08 00:40:56;;;;;;;2.05;1.08;;;20.60;52.70;;;;;;5106975;28;20052;-84
2022/07/08 00:43:40;;;;;;;1.08;0.77;;;20.60;52.80;;;;;;5064843;28;20563;-84
2022/07/08 00:46:06;;;;;;;1.40;0.73;;;20.60;52.90;;;;;;5076385;28;20058;-84
2022/07/08 00:48:33;;;;;;;1.25;0.90;;;20.60;52.80;;;;;;5093957;28;20035;-84
2022/07/08 00:51:00;;;;;;;1.10;0.85;;;20.60;52.80;;;;;;5058275;28;20535;-83
2022/07/08 00:53:28;;;;;;;0.88;0.70;;;20.50;52.80;;;;;;5110038;28;20051;-84
2022/07/08 00:55:54;;;;;;;1.45;0.90;;;20.50;52.80;;;;;;5093673;28;20496;-83
2022/07/08 00:58:20;;;;;;;1.35;0.80;;;20.50;52.80;;;;;;5081916;28;20310;-84
2022/07/08 01:00:47;;;;;;;1.45;0.70;;;20.50;52.90;;;;;;5089635;28;20482;-84
2022/07/08 01:03:13;;;;;;;1.33;0.80;;;20.50;52.90;;;;;;5102102;28;20373;-84
2022/07/08 01:05:39;;;;;;;2.38;1.10;;;20.50;52.90;;;;;;5113683;28;20077;-84
2022/07/08 01:08:05;;;;;;;1.77;1.00;;;20.50;53.00;;;;;;5079615;28;20028;-84
2022/07/08 01:10:32;;;;;;;1.35;0.88;;;20.50;53.00;;;;;;5097921;28;20495;-84
2022/07/08 01:12:57;;;;;;;0.73;0.73;;;20.40;53.00;;;;;;5096335;28;20055;-84
2022/07/08 01:15:23;;;;;;;1.83;1.00;;;20.50;53.10;;;;;;5096340;28;20428;-84
2022/07/08 01:17:49;;;;;;;0.98;0.70;;;20.40;53.00;;;;;;5106495;28;20028;-84
2022/07/08 01:20:15;;;;;;;1.45;0.90;;;20.40;53.00;;;;;;5112557;28;20040;-84
2022/07/08 01:22:42;;;;;;;2.03;0.90;;;20.40;53.10;;;;;;5078380;28;20087;-84
2022/07/08 01:25:09;;;;;;;1.63;0.90;;;20.40;53.10;;;;;;5086666;28;20031;-84
2022/07/08 01:27:35;;;;;;;1.50;0.90;;;20.40;53.10;;;;;;5112293;28;20513;-84
2022/07/08 01:30:03;;;;;;;1.52;0.90;;;20.40;53.10;;;;;;5096249;28;20036;-84
2022/07/08 01:32:34;;;;;;;1.42;0.80;;;20.30;53.10;;;;;;5095611;28;20036;-84
2022/07/08 01:35:00;;;;;;;0.75;0.75;;;20.30;53.10;;;;;;5095767;28;20309;-84
2022/07/08 01:37:25;;;;;;;1.38;0.95;;;20.30;53.10;;;;;;5090856;28;20024;-84
2022/07/08 01:39:52;;;;;;;2.17;0.95;;;20.30;53.20;;;;;;5096348;28;20035;-84
2022/07/08 01:42:17;;;;;;;1.70;0.88;;;20.30;53.20;;;;;;5113740;28;20054;-83
2022/07/08 01:44:43;;;;;;;2.25;1.10;;;20.30;53.30;;;;;;5095627;28;20031;-84
2022/07/08 01:47:09;;;;;;;0.73;0.73;;;20.20;53.10;;;;;;5075334;28;20490;-85
2022/07/08 01:49:35;;;;;;;1.00;0.82;;;20.20;53.20;;;;;;5079984;28;20100;-84
2022/07/08 01:52:01;;;;;;;1.58;0.95;;;20.20;53.20;;;;;;5094613;28;20065;-84
2022/07/08 01:54:26;;;;;;;1.30;0.88;;;20.20;53.30;;;;;;5112788;28;20024;-84
2022/07/08 01:57:13;;;;;;;2.22;1.20;;;20.20;53.30;;;;;;5083667;28;20035;-84
2022/07/08 01:59:43;;;;;;;0.70;0.65;;;20.20;53.30;;;;;;5104838;28;20039;-84
2022/07/08 02:02:09;;;;;;;1.27;1.00;;;20.10;53.30;;;;;;5072989;28;20036;-84
2022/07/08 02:04:35;;;;;;;1.10;0.80;;;20.10;53.30;;;;;;5084279;28;20468;-84
2022/07/08 02:07:02;;;;;;;0.77;0.77;;;20.10;53.30;;;;;;5091037;28;20031;-82
2022/07/08 02:09:27;;;;;;;1.80;1.10;;;20.10;53.30;;;;;;5112260;28;20540;-83
2022/07/08 02:14:38;;;;;;;1.85;0.98;;;20.10;53.40;;;;;;5092513;28;20032;-83
2022/07/08 02:17:04;;;;;;;1.38;0.80;;;20.10;53.40;;;;;;5088098;28;20027;-83
2022/07/08 02:19:31;;;;;;;0.75;0.70;;;20.00;53.40;;;;;;5082393;28;20123;-84
2022/07/08 02:21:57;;;;;;;1.70;0.90;;;20.00;53.50;;;;;;5100753;28;20031;-84
2022/07/08 02:24:23;;;;;;;2.05;0.88;;;20.00;53.50;;;;;;5060369;28;20032;-84
2022/07/08 02:26:48;;;;;;;1.20;0.70;;;20.00;53.50;;;;;;5074795;28;20024;-84
2022/07/08 02:29:14;;;;;;;1.83;0.90;;;20.00;53.60;;;;;;5074898;28;20043;-85
2022/07/08 02:31:40;;;;;;;0.90;0.80;;;20.00;53.60;;;;;;5086887;28;20035;-84
2022/07/08 02:34:06;;;;;;;2.03;0.85;;;20.00;53.60;;;;;;5094556;28;20031;-84
2022/07/08 02:36:31;;;;;;;0.95;0.80;;;19.90;53.60;;;;;;5092838;28;20464;-84
2022/07/08 02:38:57;;;;;;;1.00;0.90;;;19.90;53.60;;;;;;5076716;28;20117;-84
2022/07/08 02:41:23;;;;;;;2.38;0.70;;;19.90;53.70;;;;;;5076279;28;20066;-84
2022/07/08 02:43:49;;;;;;;1.13;0.90;;;19.90;53.70;;;;;;5085275;28;20447;-85
2022/07/08 02:46:14;;;;;;;2.15;1.20;;;19.90;53.70;;;;;;5069751;28;20445;-84
2022/07/08 02:48:40;;;;;;;1.67;0.90;;;19.90;53.70;;;;;;5067267;28;20027;-85
2022/07/08 02:51:06;;;;;;;0.98;0.88;;;19.90;53.70;;;;;;5067913;28;20032;-85
2022/07/08 02:53:32;;;;;;;1.25;0.90;;;19.80;53.70;;;;;;5100526;28;20028;-84
2022/07/08 02:55:57;;;;;;;1.88;1.05;;;19.80;53.80;;;;;;5080655;28;20040;-84
2022/07/08 02:58:23;;;;;;;1.40;0.80;;;19.80;53.70;;;;;;5070081;28;20123;-84
2022/07/08 03:00:49;;;;;;;1.48;0.93;;;19.80;53.80;;;;;;5081328;28;20131;-85
2022/07/08 03:03:14;;;;;;;2.35;0.90;;;19.80;53.80;;;;;;5068351;28;20043;-84
2022/07/08 03:05:40;;;;;;;1.13;0.80;;;19.80;53.80;;;;;;5093953;28;20088;-84
2022/07/08 03:08:06;;;;;;;1.67;1.00;;;19.70;53.80;;;;;;5079445;28;20050;-85
2022/07/08 03:10:32;;;;;;;1.15;0.80;;;19.70;53.80;;;;;;5049594;28;20463;-85
2022/07/08 03:12:58;;;;;;;1.50;0.90;;;19.70;53.90;;;;;;5066409;28;20032;-84
2022/07/08 03:15:25;;;;;;;1.90;0.98;;;19.70;54.10;;;;;;5097347;28;20028;-85
2022/07/08 03:17:51;;;;;;;2.75;1.10;;;19.70;53.90;;;;;;5107917;28;20020;-85
2022/07/08 03:20:18;;;;;;;1.92;0.90;;;19.70;54.00;;;;;;5079458;28;20469;-85
2022/07/08 03:22:44;;;;;;;1.67;0.90;;;19.60;53.90;;;;;;5095148;28;20426;-84
2022/07/08 03:25:10;;;;;;;3.30;1.13;;;19.60;54.00;;;;;;5107125;28;20035;-85
2022/07/08 03:27:37;;;;;;;2.28;1.13;;;19.60;54.00;;;;;;5115448;28;20027;-85
2022/07/08 03:30:03;;;;;;;2.30;1.02;;;19.60;54.00;;;;;;5109399;28;20032;-84
2022/07/08 03:32:29;;;;;;;2.45;1.10;;;19.60;54.00;;;;;;5059044;28;20123;-84
2022/07/08 03:34:55;;;;;;;1.98;0.90;;;19.50;54.00;;;;;;5098660;28;20080;-85
2022/07/08 03:37:21;;;;;;;4.15;1.10;;;19.50;54.00;;;;;;5096427;28;20035;-84
2022/07/08 03:39:47;;;;;;;1.52;0.98;;;19.50;54.10;;;;;;5106666;28;20036;-85
2022/07/08 03:42:14;;;;;;;1.80;1.10;;;19.50;54.10;;;;;;5078069;28;20052;-85
2022/07/08 03:44:39;;;;;;;1.60;0.98;;;19.40;54.10;;;;;;5079747;28;20468;-85
2022/07/08 03:47:05;;;;;;;1.50;1.00;;;19.40;54.10;;;;;;5094276;28;20119;-84
2022/07/08 03:49:31;;;;;;;1.52;0.80;;;19.40;54.20;;;;;;5057788;28;20357;-84
2022/07/08 03:51:56;;;;;;;2.40;1.10;;;19.40;54.20;;;;;;5095521;28;20093;-84
2022/07/08 03:54:22;;;;;;;1.10;0.90;;;19.40;54.20;;;;;;5116609;28;20080;-84
2022/07/08 03:56:48;;;;;;;1.40;1.00;;;19.40;54.30;;;;;;5113950;28;20043;-84
2022/07/08 03:59:14;;;;;;;0.80;0.80;;;19.30;54.20;;;;;;5097728;28;20062;-84
2022/07/08 04:01:40;;;;;;;1.95;1.10;;;19.30;54.30;;;;;;5096855;28;20027;-85
2022/07/08 04:04:05;;;;;;;1.08;1.00;;;19.30;54.30;;;;;;5086572;28;20028;-84
2022/07/08 04:06:31;;;;;;;0.90;0.90;;;19.30;54.40;;;;;;5074682;28;20056;-85
2022/07/08 04:08:57;;;;;;;1.35;0.98;;;19.30;54.40;;;;;;5092089;28;20032;-85
2022/07/08 04:11:23;;;;;;;1.45;0.98;;;19.20;54.40;;;;;;5111567;28;20028;-84
2022/07/08 04:13:49;;;;;;;2.05;1.05;;;19.20;54.40;;;;;;5079193;28;20472;-85
2022/07/08 04:16:15;;;;;;;0.98;0.93;;;19.20;54.50;;;;;;5086243;28;20075;-84
2022/07/08 04:18:41;;;;;;;1.40;1.10;;;19.20;54.50;;;;;;5071605;28;20084;-85
2022/07/08 04:21:08;;;;;;;2.28;1.00;;;19.20;54.60;;;;;;5111905;28;20479;-85
2022/07/08 04:23:35;;;;;;;2.80;1.20;;;19.20;54.60;;;;;;5091471;28;20038;-85
2022/07/08 04:26:01;;;;;;;1.45;0.88;;;19.10;54.60;;;;;;5095801;28;20040;-85
2022/07/08 04:28:27;;;;;;;0.82;0.80;;;19.10;54.60;;;;;;5107481;28;20020;-85
2022/07/08 04:30:52;;;;;;;1.05;0.88;;;19.10;54.70;;;;;;5112737;28;20031;-85
2022/07/08 04:33:18;;;;;;;2.03;1.00;;;19.10;54.70;;;;;;5062409;28;20030;-85
2022/07/08 04:35:44;;;;;;;2.10;1.00;;;19.10;54.70;;;;;;5107345;28;20047;-85
2022/07/08 04:38:10;;;;;;;2.03;0.93;;;19.10;54.80;;;;;;5072649;28;20032;-85
2022/07/08 04:40:35;;;;;;;0.95;0.88;;;19.00;54.70;;;;;;5086976;28;20043;-84
2022/07/08 04:43:01;;;;;;;1.50;1.02;;;19.00;54.80;;;;;;5102967;28;20448;-85
2022/07/08 04:45:27;;;;;;;2.58;1.15;;;19.00;54.80;;;;;;5079877;28;20043;-84
2022/07/08 04:47:53;;;;;;;2.45;1.13;;;19.00;54.80;;;;;;5113016;28;20038;-85
2022/07/08 04:50:19;;;;;;;1.40;0.90;;;19.00;54.90;;;;;;5074007;28;20130;-84
2022/07/08 04:52:45;;;;;;;0.70;0.70;;;18.90;54.90;;;;;;5109156;28;20031;-84
2022/07/08 04:55:29;;;;;;;1.55;0.95;;;18.90;54.90;;;;;;5110181;28;20030;-85
2022/07/08 04:58:01;;;;;;;1.90;1.10;;;18.90;54.90;;;;;;5099457;28;20049;-82
2022/07/08 05:00:28;;;;;;;1.45;0.93;;;18.90;55.00;;;;;;5104833;28;20069;-84
2022/07/08 05:02:54;;;;;;;1.88;1.00;;;18.90;55.00;;;;;;5087636;28;20063;-79
2022/07/08 05:05:21;;;;;;;1.02;0.98;;;18.90;55.00;;;;;;5087620;28;20423;-84
2022/07/08 05:07:50;;;;;;;2.03;1.10;;;18.90;55.10;;;;;;5075104;28;20024;-85
2022/07/08 05:10:17;;;;;;;1.40;0.95;;;18.90;55.10;;;;;;5114588;28;20126;-85
2022/07/08 05:12:43;;;;;;;2.00;1.00;;;18.90;55.20;;;;;;5088097;28;20020;-84
2022/07/08 05:15:10;;;;;;;2.42;0.90;;;18.80;55.20;;;;;;5106835;28;20484;-84
2022/07/08 05:17:36;;;;;;;1.98;1.15;;;18.80;55.20;;;;;;5087572;28;20467;-84
2022/07/08 05:20:02;;;;;;;1.80;1.27;;;18.80;55.20;;;;;;5087424;28;20092;-84
2022/07/08 05:22:28;;;;;;;2.08;1.20;;;18.90;55.30;;;;;;5070875;28;20050;-84
2022/07/08 05:24:53;;;;;;;1.58;0.95;;;18.80;55.30;;;;;;5088663;28;20425;-84
2022/07/08 05:27:20;;;;;;;1.30;1.05;;;18.80;55.30;;;;;;5093307;28;20039;-85
2022/07/08 05:29:46;;;;;;;2.25;1.10;;;18.80;55.40;;;;;;5094904;28;20038;-84
2022/07/08 05:32:12;;;;;;;2.55;1.00;;;18.80;55.30;;;;;;5078781;28;20028;-83
2022/07/08 05:34:41;;;;;;;1.55;1.00;;;18.80;55.40;;;;;;5098760;28;20024;-84
2022/07/08 05:37:07;;;;;;;2.17;1.10;;;18.80;55.40;;;;;;5084290;28;20077;-84
2022/07/08 05:39:34;;;;;;;1.88;1.00;;;18.80;55.40;;;;;;5091898;28;20501;-86
2022/07/08 05:41:59;;;;;;;1.88;1.05;;;18.80;55.40;;;;;;5107259;28;20513;-84
2022/07/08 05:44:25;;;;;;;1.95;1.10;;;18.80;55.40;;;;;;5064577;28;20035;-83
2022/07/08 05:46:51;;;;;;;2.83;1.15;;;18.70;55.40;;;;;;5093880;28;20757;-83
2022/07/08 05:49:16;;;;;;;1.10;1.00;;;18.80;55.40;;;;;;5064799;28;20027;-83
2022/07/08 05:51:42;;;;;;;1.25;1.00;;;18.80;55.50;;;;;;5077341;28;20129;-83
2022/07/08 05:54:08;;;;;;;2.20;1.05;;;18.80;55.50;;;;;;5085851;28;20031;-84
2022/07/08 05:56:34;;;;;;;2.05;1.10;;;18.80;55.50;;;;;;5108025;28;20031;-82
2022/07/08 05:58:59;;;;;;;1.95;1.10;;;18.80;55.50;;;;;;5101845;28;20039;-83
2022/07/08 06:01:25;;;;;;;1.15;0.93;;;18.80;55.50;;;;;;5052404;28;20126;-84
2022/07/08 06:03:51;;;;;;;1.75;1.10;;;18.80;55.50;;;;;;5100492;28;20024;-83
2022/07/08 06:06:16;;;;;;;1.38;0.95;;;18.80;55.50;;;;;;5091106;28;20525;-83
2022/07/08 06:08:42;;;;;;;2.20;0.98;;;18.80;55.60;;;;;;5083201;28;20140;-83
2022/07/08 06:11:08;;;;;;;2.22;1.17;;;18.80;55.60;;;;;;5104803;28;20071;-82
2022/07/08 06:13:33;;;;;;;2.08;1.40;;;18.80;55.60;;;;;;5104067;28;20028;-83
2022/07/08 06:15:59;;;;;;;2.25;1.08;;;18.80;55.60;;;;;;5086269;28;20063;-82
2022/07/08 06:18:25;;;;;;;1.60;1.20;;;18.80;55.60;;;;;;5059335;28;20106;-83
2022/07/08 06:20:51;;;;;;;1.63;0.93;;;18.80;55.60;;;;;;5106717;28;20114;-83
2022/07/08 06:23:17;;;;;;;1.75;0.95;;;18.80;55.60;;;;;;5109344;28;20574;-81
2022/07/08 06:25:43;;;;;;;1.95;0.90;;;18.80;55.60;;;;;;5070390;28;20032;-79
2022/07/08 06:28:08;;;;;;;1.35;0.95;;;18.80;55.60;;;;;;5090953;28;20029;-80
2022/07/08 06:30:34;;;;;;;1.80;0.90;;;18.80;55.60;;;;;;5085098;28;20036;-81
2022/07/08 06:33:00;;;;;;;0.88;0.80;;;18.90;55.70;;;;;;5068218;28;20050;-80
2022/07/08 06:35:27;;;;;;;0.90;0.80;;;18.90;55.70;;;;;;5110978;28;20472;-79
2022/07/08 06:37:53;;;;;;;0.85;0.80;;;18.90;55.70;;;;;;5104084;28;20035;-80
2022/07/08 06:40:22;;;;;;;1.13;0.90;;;18.90;55.70;;;;;;5086431;28;20039;-80
2022/07/08 06:42:49;;;;;;;0.88;0.73;;;18.90;55.70;;;;;;5062528;28;20051;-80
2022/07/08 06:45:15;;;;;;;1.10;1.00;;;18.90;55.80;;;;;;5101781;28;20042;-80
2022/07/08 06:47:42;;;;;;;1.80;1.15;;;18.90;55.80;;;;;;5101814;28;20043;-79
2022/07/08 06:50:08;;;;;;;1.83;1.00;;;19.00;55.90;;;;;;5109822;28;20034;-80
2022/07/08 06:52:35;;;;;;;1.88;1.08;;;19.00;56.00;;;;;;5076893;28;20060;-80
2022/07/08 06:55:02;;;;;;;1.30;0.90;;;19.00;56.00;;;;;;5103769;28;20056;-80
2022/07/08 06:57:28;;;;;;;1.00;0.90;;;19.10;56.10;;;;;;5076181;28;20034;-81
2022/07/08 06:59:54;;;;;;;2.38;0.98;;;19.10;56.00;;;;;;5075191;28;20035;-80
2022/07/08 07:02:20;;;;;;;2.75;1.35;;;19.10;56.00;;;;;;5082137;28;20107;-80
2022/07/08 07:04:45;;;;;;;3.00;1.08;;;19.20;56.10;;;;;;5093113;28;20107;-80
2022/07/08 07:07:11;;;;;;;1.17;0.90;;;19.20;56.00;;;;;;5073367;28;20119;-80
2022/07/08 07:09:38;;;;;;;2.00;1.30;;;19.20;56.00;;;;;;5082445;28;20032;-81
2022/07/08 07:12:07;;;;;;;0.85;0.80;;;19.30;56.10;;;;;;5105068;28;20385;-80
2022/07/08 07:14:34;;;;;;;1.95;1.02;;;19.30;56.10;;;;;;5090709;28;20024;-79
2022/07/08 07:17:00;;;;;;;2.67;1.23;;;19.30;56.00;;;;;;5111280;28;20094;-81
2022/07/08 07:19:26;;;;;;;1.33;0.85;;;19.40;56.00;;;;;;5102307;28;20047;-82
2022/07/08 07:21:52;;;;;;;2.45;1.42;;;19.40;56.00;;;;;;5102782;28;20407;-84
2022/07/08 07:24:18;;;;;;;1.70;1.00;;;19.40;56.00;;;;;;5085696;28;20047;-83
2022/07/08 07:26:44;;;;;;;2.20;0.98;;;19.50;56.00;;;;;;5089567;28;20103;-82
2022/07/08 07:29:09;;;;;;;1.42;0.98;;;19.50;56.00;;;;;;5073162;28;20078;-82
2022/07/08 07:31:36;;;;;;;1.65;0.93;;;19.60;56.00;;;;;;5087039;28;20400;-83
2022/07/08 07:34:03;;;;;;;1.00;0.93;;;19.60;56.00;;;;;;5090042;28;20016;-86
2022/07/08 07:36:30;;;;;;;2.15;0.93;;;19.60;56.00;;;;;;5068749;28;20051;-85
2022/07/08 07:38:56;;;;;;;1.55;0.85;;;19.70;56.00;;;;;;5103631;28;20455;-82
2022/07/08 07:41:22;;;;;;;1.10;1.00;;;19.70;56.00;;;;;;5075955;28;20063;-83
2022/07/08 07:43:48;;;;;;;1.80;1.02;;;19.80;56.00;;;;;;5068500;28;20039;-81
2022/07/08 07:46:14;;;;;;;0.95;0.88;;;19.80;56.00;;;;;;5088104;28;20085;-84
2022/07/08 07:48:39;;;;;;;1.55;0.98;;;19.80;55.90;;;;;;5083329;28;20035;-81
2022/07/08 07:51:05;;;;;;;1.73;0.93;;;19.90;55.90;;;;;;5058694;28;20036;-83
2022/07/08 07:53:31;;;;;;;2.28;0.80;;;20.00;55.90;;;;;;5090423;28;20029;-84
2022/07/08 07:55:57;;;;;;;2.03;1.00;;;20.00;55.80;;;;;;5079158;28;20032;-83
2022/07/08 07:58:24;;;;;;;1.08;0.80;;;20.10;55.80;;;;;;5081409;28;20038;-84
2022/07/08 08:00:50;;;;;;;1.35;0.82;;;20.10;55.80;;;;;;5107221;28;20135;-84
2022/07/08 08:03:16;;;;;;;2.03;1.00;;;20.20;55.70;;;;;;5072970;28;20118;-85
2022/07/08 08:05:42;;;;;;;1.42;1.10;;;20.20;55.60;;;;;;5060248;28;20112;-83
2022/07/08 08:08:11;;;;;;;1.33;0.80;;;20.30;55.60;;;;;;5076622;28;20071;-84
2022/07/08 08:10:37;;;;;;;2.10;1.10;;;20.30;55.50;;;;;;5083750;28;20081;-85
2022/07/08 08:13:04;;;;;;;1.13;0.77;;;20.40;55.40;;;;;;5088773;28;20028;-85
2022/07/08 08:15:30;;;;;;;2.22;1.02;;;20.40;55.40;;;;;;5089120;28;20404;-84
2022/07/08 08:17:57;;;;;;;2.35;1.00;;;20.50;55.40;;;;;;5089792;28;20057;-84
2022/07/08 08:20:27;;;;;;;1.50;0.93;;;20.50;55.30;;;;;;5089520;28;20070;-83
2022/07/08 08:22:54;;;;;;;1.92;1.35;;;20.60;55.30;;;;;;5078594;28;20107;-85
2022/07/08 08:25:20;;;;;;;1.27;0.93;;;20.70;55.20;;;;;;5075801;28;20019;-84
2022/07/08 08:27:46;;;;;;;3.08;1.15;;;20.80;55.20;;;;;;5107054;28;20091;-83
2022/07/08 08:30:13;;;;;;;1.55;0.82;;;20.80;55.10;;;;;;5108036;28;20028;-83
2022/07/08 08:32:39;;;;;;;2.05;0.93;;;20.90;55.00;;;;;;5100461;28;20035;-83
2022/07/08 08:35:06;;;;;;;1.52;1.00;;;21.00;54.90;;;;;;5080795;28;20042;-84
2022/07/08 08:37:32;;;;;;;1.38;0.98;;;21.00;54.80;;;;;;5104975;28;20054;-83
2022/07/08 08:40:06;;;;;;;0.85;0.70;;;21.10;54.80;;;;;;5110163;28;20054;-84
2022/07/08 08:42:32;;;;;;;1.05;0.98;;;21.20;54.80;;;;;;5110611;28;20127;-84
2022/07/08 08:44:59;;;;;;;1.75;1.00;;;21.30;54.60;;;;;;5103337;28;20093;-83
2022/07/08 08:47:30;;;;;;;1.23;0.80;;;21.30;54.50;;;;;;5109519;28;20069;-83
2022/07/08 08:49:57;;;;;;;1.52;0.90;;;21.40;54.50;;;;;;5095745;28;20100;-83
2022/07/08 08:52:23;;;;;;;1.85;1.02;;;21.50;54.50;;;;;;5079771;28;20039;-84
2022/07/08 08:54:51;;;;;;;1.80;1.02;;;21.50;54.30;;;;;;5088961;28;20058;-83
2022/07/08 08:57:18;;;;;;;0.90;0.80;;;21.60;55.00;;;;;;5114737;28;20024;-84
2022/07/08 08:59:46;;;;;;;1.65;0.95;;;21.70;54.30;;;;;;5076114;28;20090;-83
2022/07/08 09:02:12;;;;;;;2.05;1.00;;;21.70;54.20;;;;;;5067846;28;20472;-82
2022/07/08 09:04:38;;;;;;;1.63;0.80;;;21.80;54.20;;;;;;5099723;28;20019;-84
2022/07/08 09:07:05;;;;;;;2.28;0.93;;;21.80;54.20;;;;;;5087666;28;20024;-84
2022/07/08 09:09:30;;;;;;;1.27;0.80;;;21.80;54.10;;;;;;5087318;28;20035;-83
2022/07/08 09:11:56;;;;;;;2.05;0.90;;;21.90;54.10;;;;;;5079218;28;20031;-84
2022/07/08 09:14:23;;;;;;;1.58;0.90;;;22.00;54.00;;;;;;5105587;28;20024;-83
2022/07/08 09:17:09;;;;;;;1.92;0.95;;;22.10;54.00;;;;;;5079227;28;20039;-83
2022/07/08 09:19:36;;;;;;;1.08;0.80;;;22.10;54.10;;;;;;5088631;28;20027;-84
2022/07/08 09:22:03;;;;;;;1.02;0.85;;;22.20;53.90;;;;;;5105472;28;20041;-84
2022/07/08 09:24:29;;;;;;;1.33;0.80;;;22.20;53.80;;;;;;5087165;28;20134;-84
2022/07/08 09:26:55;;;;;;;0.80;0.80;;;22.30;53.80;;;;;;5095764;28;20024;-84
2022/07/08 09:29:22;;;;;;;1.00;0.90;;;22.40;53.80;;;;;;5087580;28;20063;-84
2022/07/08 09:31:47;;;;;;;0.63;0.63;;;22.40;53.70;;;;;;5087861;28;20462;-82
2022/07/08 09:34:16;;;;;;;0.82;0.68;;;22.50;53.70;;;;;;5087496;28;20038;-82
2022/07/08 09:36:49;;;;;;;0.63;0.60;;;22.60;53.60;;;;;;5103577;28;20027;-85
2022/07/08 09:39:27;;;;;;;1.30;0.80;;;22.60;53.60;;;;;;5095034;28;20027;-81
2022/07/08 09:41:54;;;;;;;1.08;0.80;;;22.70;53.60;;;;;;5084161;28;20173;-87
2022/07/08 09:44:23;;;;;;;0.98;0.90;;;22.80;53.40;;;;;;5071819;28;20487;-88
2022/07/08 09:46:49;;;;;;;1.42;0.80;;;22.90;53.40;;;;;;5093365;28;20052;-87
2022/07/08 09:49:32;;;;;;;0.80;0.73;;;22.90;53.30;;;;;;5085852;28;20036;-90
2022/07/08 09:51:59;;;;;;;0.85;0.80;;;23.00;53.40;;;;;;5106439;28;20373;-88
2022/07/08 09:54:27;;;;;;;0.65;0.65;;;23.10;53.30;;;;;;5106276;28;20023;-89
2022/07/08 09:57:02;;;;;;;2.28;1.13;;;23.10;53.20;;;;;;5108896;28;20043;-90
2022/07/08 09:59:30;;;;;;;1.77;0.90;;;23.20;53.30;;;;;;5086177;28;20101;-86
2022/07/08 10:01:57;;;;;;;0.77;0.75;;;23.30;53.20;;;;;;5080468;28;20029;-88
2022/07/08 10:04:24;;;;;;;2.70;1.13;;;23.30;53.10;;;;;;5085832;28;20108;-88
2022/07/08 10:06:54;;;;;;;1.83;0.90;;;23.40;53.10;;;;;;5090306;28;20103;-87
2022/07/08 10:09:21;;;;;;;1.15;0.80;;;23.50;53.10;;;;;;5093458;28;20043;-88
2022/07/08 10:11:49;;;;;;;0.75;0.75;;;23.50;53.00;;;;;;5109324;28;20048;-85
2022/07/08 10:14:15;;;;;;;1.20;0.82;;;23.60;53.00;;;;;;5066794;28;20337;-88
2022/07/08 10:16:42;;;;;;;2.13;0.90;;;23.70;53.00;;;;;;5087057;28;20025;-87
2022/07/08 10:19:24;;;;;;;1.25;0.93;;;23.80;53.00;;;;;;5063738;28;20086;-86
2022/07/08 10:21:52;;;;;;;1.80;0.93;;;23.90;53.00;;;;;;5108321;28;20040;-88
2022/07/08 10:24:22;;;;;;;2.17;0.90;;;24.00;53.00;;;;;;5085742;28;20019;-91
2022/07/08 10:26:48;;;;;;;1.08;0.88;;;24.00;53.00;;;;;;5092736;28;20484;-88
2022/07/08 10:29:14;;;;;;;1.27;0.80;;;24.20;53.00;;;;;;5084132;28;20058;-88
2022/07/08 10:31:52;;;;;;;1.65;0.80;;;24.20;52.80;;;;;;5087826;28;20060;-83
2022/07/08 10:34:28;;;;;;;1.92;1.10;;;24.40;52.80;;;;;;5085125;28;20024;-91
2022/07/08 10:36:54;;;;;;;0.70;0.60;;;24.40;52.70;;;;;;5068870;28;20071;-86
2022/07/08 10:39:24;;;;;;;2.15;0.93;;;24.50;52.80;;;;;;5083622;28;20412;-83
2022/07/08 10:42:07;;;;;;;1.67;0.98;;;24.60;52.80;;;;;;5105365;28;20054;-84
2022/07/08 10:44:42;;;;;;;1.20;0.77;;;24.60;52.80;;;;;;5082886;28;20028;-87
2022/07/08 10:47:37;;;;;;;1.75;0.90;;;24.70;52.70;;;;;;5095277;28;20028;-89
2022/07/08 10:50:05;;;;;;;1.67;0.70;;;24.80;52.70;;;;;;5080198;28;20036;-89
2022/07/08 10:52:41;;;;;;;2.33;1.00;;;24.90;52.60;;;;;;5085023;28;20029;-93
2022/07/08 10:55:15;;;;;;;1.98;1.08;;;24.90;52.40;;;;;;5086095;28;20032;-92
2022/07/08 10:57:58;;;;;;;2.55;1.00;;;25.00;52.50;;;;;;5083628;28;20040;-90
2022/07/08 11:00:24;;;;;;;2.38;1.20;;;25.00;52.30;;;;;;5091748;28;20078;-90
2022/07/08 11:02:50;;;;;;;1.92;1.05;;;25.10;52.10;;;;;;5082672;28;20016;-91
2022/07/08 11:05:38;;;;;;;6.43;1.45;;;25.10;52.00;;;;;;5063536;28;20363;-94
2022/07/08 11:08:18;;;;;;;2.22;1.20;;;25.10;52.00;;;;;;5082292;28;20453;-95
2022/07/08 11:10:45;;;;;;;2.65;1.40;;;25.20;51.90;;;;;;5092149;28;20032;-91
2022/07/08 11:13:11;;;;;;;2.70;1.10;;;25.30;51.70;;;;;;5066300;28;20058;-91
2022/07/08 11:15:37;;;;;;;3.35;1.30;;;25.30;51.60;;;;;;5083521;28;20028;-92
2022/07/08 11:18:03;;;;;;;2.65;1.20;;;25.30;51.30;;;;;;5085728;28;20376;-85
2022/07/08 11:20:31;;;;;;;3.88;1.30;;;25.40;51.60;;;;;;5091293;28;20029;-92
2022/07/08 11:22:57;;;;;;;2.03;1.20;;;25.40;51.40;;;;;;5098505;28;20020;-91
2022/07/08 11:25:23;;;;;;;4.63;1.50;;;25.40;51.30;;;;;;5094976;28;20379;-89
2022/07/08 11:27:50;;;;;;;2.28;1.00;;;25.50;51.30;;;;;;5084290;28;20028;-93
2022/07/08 11:30:16;;;;;;;2.85;1.33;;;25.50;51.30;;;;;;5093456;28;20741;-93
2022/07/08 11:32:51;;;;;;;2.10;1.40;;;25.60;51.40;;;;;;5096535;28;20032;-93
2022/07/08 11:35:22;;;;;;;2.72;1.15;;;25.70;52.00;;;;;;5087206;28;20448;-92
2022/07/08 11:37:48;;;;;;;2.33;1.30;;;25.70;51.20;;;;;;5058591;28;20047;-92
2022/07/08 11:40:17;;;;;;;3.30;1.25;;;25.70;51.00;;;;;;5066996;28;20028;-92
2022/07/08 11:42:43;;;;;;;3.13;0.95;;;25.70;51.10;;;;;;5091405;28;20044;-93
2022/07/08 11:45:11;;;;;;;4.18;1.42;;;25.80;51.10;;;;;;5105150;28;20442;-90
2022/07/08 11:47:38;;;;;;;1.65;1.15;;;25.80;51.10;;;;;;5086395;28;20077;-90
2022/07/08 11:50:07;;;;;;;2.03;1.30;;;25.80;51.20;;;;;;5078145;28;20029;-90
2022/07/08 11:52:33;;;;;;;2.17;1.05;;;25.80;51.20;;;;;;5096498;28;20027;-88
2022/07/08 11:54:58;;;;;;;1.80;1.02;;;25.90;51.30;;;;;;5066322;28;20033;-87
2022/07/08 11:57:25;;;;;;;2.75;1.30;;;25.90;51.20;;;;;;5074373;28;20040;-89
2022/07/08 11:59:51;;;;;;;3.33;1.10;;;25.90;51.10;;;;;;5087179;28;20056;-88
2022/07/08 12:02:23;;;;;;;3.38;1.40;;;26.00;51.20;;;;;;5092208;28;20028;-88
2022/07/08 12:04:50;;;;;;;2.38;1.25;;;26.00;51.10;;;;;;5097791;28;20025;-87
2022/07/08 12:07:28;;;;;;;2.53;1.17;;;26.00;51.00;;;;;;5094256;28;20020;-88
2022/07/08 12:09:56;;;;;;;1.30;1.00;;;26.10;51.20;;;;;;5086872;28;20123;-87
2022/07/08 12:12:24;;;;;;;3.55;1.20;;;26.10;51.30;;;;;;5090910;28;20023;-88
2022/07/08 12:14:50;;;;;;;2.78;1.20;;;26.10;51.40;;;;;;5081107;28;20077;-89
2022/07/08 12:17:27;;;;;;;2.50;1.20;;;26.20;51.50;;;;;;5102799;28;20020;-89
2022/07/08 12:19:57;;;;;;;2.03;1.60;;;26.20;51.40;;;;;;5094468;28;20043;-95
2022/07/08 12:22:44;;;;;;;2.60;1.15;;;26.20;51.30;;;;;;5089242;28;20036;-92
2022/07/08 12:25:11;;;;;;;3.60;1.50;;;26.20;51.50;;;;;;5089173;28;20079;-93
2022/07/08 12:27:37;;;;;;;3.28;1.20;;;26.30;51.50;;;;;;5087301;28;20047;-93
2022/07/08 12:30:07;;;;;;;1.85;1.00;;;26.30;51.50;;;;;;5094683;28;20156;-91
2022/07/08 12:32:45;;;;;;;1.75;1.08;;;26.30;51.50;;;;;;5090858;28;20221;-90
2022/07/08 12:35:12;;;;;;;2.50;1.20;;;26.40;51.60;;;;;;5085600;28;20047;-92
2022/07/08 12:37:39;;;;;;;3.45;1.38;;;26.40;51.50;;;;;;5076165;28;20035;-91
2022/07/08 12:40:23;;;;;;;3.53;1.30;;;26.40;51.40;;;;;;5084984;28;20035;-91
2022/07/08 12:43:03;;;;;;;2.45;1.33;;;26.50;51.50;;;;;;5074720;28;20048;-92
2022/07/08 12:45:29;;;;;;;1.75;1.10;;;26.50;51.40;;;;;;5110281;28;20499;-84
2022/07/08 12:47:55;;;;;;;3.35;1.50;;;26.50;51.30;;;;;;5084521;28;20105;-86
2022/07/08 12:50:22;;;;;;;2.63;1.05;;;26.50;51.50;;;;;;5075343;28;20040;-87
2022/07/08 12:52:48;;;;;;;2.22;0.95;;;26.60;51.60;;;;;;5092830;28;20395;-87